createdAt,value
2018-08-13T00:00:22.789Z,1002.9
2018-08-13T00:01:24.188Z,1002.9
2018-08-13T00:02:25.602Z,1002.9
2018-08-13T00:03:27.007Z,1002.8
2018-08-13T00:04:28.482Z,1002.9
2018-08-13T00:05:29.885Z,1002.8
2018-08-13T00:06:31.377Z,1002.8
2018-08-13T00:07:32.778Z,1002.8
2018-08-13T00:08:34.177Z,1002.8
2018-08-13T00:09:35.684Z,1002.8
2018-08-13T00:10:37.084Z,1002.8
2018-08-13T00:11:38.487Z,1002.7
2018-08-13T00:12:39.901Z,1002.7
2018-08-13T00:13:41.305Z,1002.7
2018-08-13T00:14:42.785Z,1002.7
2018-08-13T00:15:44.184Z,1002.7
2018-08-13T00:16:45.666Z,1002.7
2018-08-13T00:17:47.071Z,1002.7
2018-08-13T00:18:48.543Z,1002.7
2018-08-13T00:19:49.950Z,1002.7
2018-08-13T00:20:51.427Z,1002.6
2018-08-13T00:21:52.829Z,1002.6
2018-08-13T00:22:54.228Z,1002.6
2018-08-13T00:23:55.647Z,1002.6
2018-08-13T00:24:57.047Z,1002.6
2018-08-13T00:25:58.450Z,1002.6
2018-08-13T00:26:59.968Z,1002.6
2018-08-13T00:28:01.373Z,1002.6
2018-08-13T00:29:02.853Z,1002.6
2018-08-13T00:30:04.249Z,1002.6
2018-08-13T00:31:05.729Z,1002.5
2018-08-13T00:32:07.135Z,1002.6
2018-08-13T00:33:08.533Z,1002.5
2018-08-13T00:34:10.054Z,1002.5
2018-08-13T00:35:11.470Z,1002.5
2018-08-13T00:36:12.873Z,1002.5
2018-08-13T00:37:14.373Z,1002.4
2018-08-13T00:38:15.774Z,1002.4
2018-08-13T00:39:17.254Z,1002.4
2018-08-13T00:40:18.655Z,1002.4
2018-08-13T00:41:20.130Z,1002.4
2018-08-13T00:42:21.533Z,1002.4
2018-08-13T00:43:23.014Z,1002.4
2018-08-13T00:44:24.412Z,1002.4
2018-08-13T00:45:25.898Z,1002.4
2018-08-13T00:46:27.296Z,1002.4
2018-08-13T00:47:28.697Z,1002.4
2018-08-13T00:48:30.114Z,1002.4
2018-08-13T00:49:31.517Z,1002.4
2018-08-13T00:50:32.918Z,1002.3
2018-08-13T00:51:34.333Z,1002.4
2018-08-13T00:52:35.733Z,1002.4
2018-08-13T00:53:37.132Z,1002.3
2018-08-13T00:54:38.551Z,1002.3
2018-08-13T00:55:39.953Z,1002.3
2018-08-13T00:56:41.436Z,1002.3
2018-08-13T00:57:42.876Z,1002.3
2018-08-13T00:58:44.314Z,1002.2
2018-08-13T00:59:45.713Z,1002.2
2018-08-13T01:00:47.206Z,1002.2
2018-08-13T01:01:48.592Z,1002.2
2018-08-13T01:02:49.998Z,1002.2
2018-08-13T01:03:51.416Z,1002.2
2018-08-13T01:04:52.813Z,1002.2
2018-08-13T01:05:54.223Z,1002.2
2018-08-13T01:06:55.735Z,1002.2
2018-08-13T01:12:33.844Z,1002.2
2018-08-13T01:13:35.241Z,1002.2
2018-08-13T01:14:36.789Z,1002.1
2018-08-13T01:15:38.186Z,1002.2
2018-08-13T01:16:39.626Z,1002.2
2018-08-13T01:17:41.026Z,1002.1
2018-08-13T01:18:42.419Z,1002.1
2018-08-13T01:19:43.844Z,1002.0
2018-08-13T01:20:45.241Z,1002.1
2018-08-13T01:21:46.637Z,1002.0
2018-08-13T01:22:48.064Z,1002.1
2018-08-13T01:23:49.460Z,1002.1
2018-08-13T01:24:50.945Z,1002.1
2018-08-13T01:25:52.346Z,1002.1
2018-08-13T01:26:53.827Z,1002.0
2018-08-13T01:27:55.221Z,1002.0
2018-08-13T01:28:56.705Z,1002.0
2018-08-13T01:29:58.105Z,1002.0
2018-08-13T01:30:59.585Z,1002.0
2018-08-13T01:32:00.987Z,1002.0
2018-08-13T01:33:02.470Z,1002.0
2018-08-13T01:34:03.868Z,1001.9
2018-08-13T01:35:05.350Z,1001.8
2018-08-13T01:36:06.743Z,1001.9
2018-08-13T01:37:08.229Z,1001.9
2018-08-13T01:38:09.635Z,1001.8
2018-08-13T01:39:11.113Z,1001.8
2018-08-13T01:40:12.512Z,1001.8
2018-08-13T01:41:13.998Z,1001.8
2018-08-13T01:42:15.386Z,1001.8
2018-08-13T01:43:16.875Z,1001.7
2018-08-13T01:44:18.271Z,1001.7
2018-08-13T01:45:19.670Z,1001.7
2018-08-13T01:46:21.093Z,1001.6
2018-08-13T01:47:22.493Z,1001.6
2018-08-13T01:48:23.886Z,1001.6
2018-08-13T01:49:25.330Z,1001.5
2018-08-13T01:50:26.710Z,1001.5
2018-08-13T01:51:28.192Z,1001.6
2018-08-13T01:52:29.593Z,1001.6
2018-08-13T01:53:30.992Z,1001.6
2018-08-13T01:54:32.410Z,1001.6
2018-08-13T01:55:33.813Z,1001.6
2018-08-13T01:56:35.212Z,1001.6
2018-08-13T01:57:36.640Z,1001.6
2018-08-13T01:58:38.029Z,1001.6
2018-08-13T01:59:39.431Z,1001.6
2018-08-13T02:00:40.847Z,1001.6
2018-08-13T02:01:42.262Z,1001.6
2018-08-13T02:02:43.657Z,1001.6
2018-08-13T02:03:45.064Z,1001.6
2018-08-13T02:04:46.465Z,1001.6
2018-08-13T02:05:47.948Z,1001.6
2018-08-13T02:06:49.349Z,1001.6
2018-08-13T02:07:50.826Z,1001.6
2018-08-13T02:08:52.226Z,1001.6
2018-08-13T02:09:53.632Z,1001.6
2018-08-13T02:10:55.046Z,1001.6
2018-08-13T02:11:56.445Z,1001.6
2018-08-13T02:12:57.848Z,1001.6
2018-08-13T02:13:59.266Z,1001.6
2018-08-13T02:15:00.668Z,1001.6
2018-08-13T02:16:02.071Z,1001.7
2018-08-13T02:17:03.587Z,1001.7
2018-08-13T02:18:04.986Z,1001.7
2018-08-13T02:19:06.384Z,1001.7
2018-08-13T02:20:07.803Z,1001.7
2018-08-13T02:21:09.206Z,1001.7
2018-08-13T02:22:10.687Z,1001.7
2018-08-13T02:23:12.096Z,1001.7
2018-08-13T02:24:13.567Z,1001.6
2018-08-13T02:25:14.965Z,1001.6
2018-08-13T02:26:16.447Z,1001.6
2018-08-13T02:27:17.848Z,1001.5
2018-08-13T02:28:19.330Z,1001.5
2018-08-13T02:29:20.738Z,1001.5
2018-08-13T02:30:24.735Z,1001.5
2018-08-13T02:31:26.133Z,1001.5
2018-08-13T02:32:27.553Z,1001.6
2018-08-13T02:33:28.954Z,1001.6
2018-08-13T02:34:30.657Z,1001.6
2018-08-13T02:35:32.078Z,1001.6
2018-08-13T02:36:33.475Z,1001.6
2018-08-13T02:37:34.876Z,1001.6
2018-08-13T02:38:36.294Z,1001.6
2018-08-13T02:39:37.691Z,1001.6
2018-08-13T02:40:39.176Z,1001.5
2018-08-13T02:41:40.577Z,1001.5
2018-08-13T02:42:42.056Z,1001.5
2018-08-13T02:43:43.459Z,1001.5
2018-08-13T02:44:44.859Z,1001.5
2018-08-13T02:45:46.379Z,1001.5
2018-08-13T02:46:47.773Z,1001.4
2018-08-13T02:47:49.171Z,1001.5
2018-08-13T02:48:50.601Z,1001.4
2018-08-13T02:49:51.997Z,1001.4
2018-08-13T02:50:53.396Z,1001.4
2018-08-13T02:51:54.915Z,1001.4
2018-08-13T02:52:56.317Z,1001.4
2018-08-13T02:53:57.713Z,1001.3
2018-08-13T02:54:59.135Z,1001.3
2018-08-13T02:56:00.548Z,1001.2
2018-08-13T02:57:02.029Z,1001.2
2018-08-13T02:58:03.444Z,1001.2
2018-08-13T02:59:04.812Z,1001.3
2018-08-13T03:00:06.434Z,1001.2
2018-08-13T03:01:07.589Z,1001.2
2018-08-13T03:02:08.975Z,1001.1
2018-08-13T03:03:10.454Z,1001.1
2018-08-13T03:04:11.859Z,1001.1
2018-08-13T03:05:13.254Z,1001.1
2018-08-13T03:06:14.780Z,1001.0
2018-08-13T03:07:16.179Z,1001.0
2018-08-13T03:08:17.575Z,1001.0
2018-08-13T03:09:18.995Z,1001.0
2018-08-13T03:10:20.393Z,1001.0
2018-08-13T03:11:21.871Z,1001.0
2018-08-13T03:12:23.274Z,1001.0
2018-08-13T03:13:24.763Z,1001.0
2018-08-13T03:14:26.178Z,1001.0
2018-08-13T03:15:27.555Z,1001.0
2018-08-13T03:16:28.997Z,1000.9
2018-08-13T03:17:30.407Z,1000.9
2018-08-13T03:18:31.801Z,1000.8
2018-08-13T03:19:33.351Z,1000.8
2018-08-13T03:20:34.747Z,1000.8
2018-08-13T03:21:36.174Z,1000.8
2018-08-13T03:22:37.574Z,1000.8
2018-08-13T03:23:39.054Z,1000.7
2018-08-13T03:24:40.457Z,1000.8
2018-08-13T03:25:41.858Z,1000.8
2018-08-13T03:26:43.273Z,1000.8
2018-08-13T03:27:44.674Z,1000.9
2018-08-13T03:28:46.076Z,1000.9
2018-08-13T03:29:47.491Z,1000.9
2018-08-13T03:30:48.909Z,1001.0
2018-08-13T03:31:50.331Z,1001.0
2018-08-13T03:32:51.822Z,1000.9
2018-08-13T03:33:53.222Z,1000.9
2018-08-13T03:34:54.620Z,1000.8
2018-08-13T03:35:56.144Z,1000.9
2018-08-13T03:36:57.538Z,1000.8
2018-08-13T03:37:59.025Z,1000.8
2018-08-13T03:39:00.499Z,1000.8
2018-08-13T03:40:02.001Z,1000.8
2018-08-13T03:41:03.401Z,1000.8
2018-08-13T03:42:04.880Z,1000.8
2018-08-13T03:43:06.282Z,1000.9
2018-08-13T03:44:07.763Z,1000.8
2018-08-13T03:45:09.160Z,1000.8
2018-08-13T03:46:10.643Z,1000.9
2018-08-13T03:47:12.043Z,1000.9
2018-08-13T03:48:13.523Z,1000.8
2018-08-13T03:49:14.925Z,1000.8
2018-08-13T03:50:16.327Z,1000.8
2018-08-13T03:51:17.741Z,1000.7
2018-08-13T03:52:19.141Z,1000.8
2018-08-13T03:53:20.542Z,1000.7
2018-08-13T03:54:21.963Z,1000.7
2018-08-13T03:55:23.364Z,1000.6
2018-08-13T03:56:24.842Z,1000.6
2018-08-13T03:57:26.244Z,1000.5
2018-08-13T03:58:27.722Z,1000.5
2018-08-13T03:59:29.122Z,1000.5
2018-08-13T04:00:30.605Z,1000.5
2018-08-13T04:01:32.003Z,1000.6
2018-08-13T04:02:33.484Z,1000.6
2018-08-13T04:03:34.884Z,1000.6
2018-08-13T04:04:36.367Z,1000.6
2018-08-13T04:05:37.772Z,1000.6
2018-08-13T04:06:39.167Z,1000.5
2018-08-13T04:07:40.586Z,1000.6
2018-08-13T04:08:41.987Z,1000.5
2018-08-13T04:09:43.391Z,1000.5
2018-08-13T04:10:44.908Z,1000.5
2018-08-13T04:11:46.313Z,1000.5
2018-08-13T04:12:47.809Z,1000.5
2018-08-13T04:13:49.209Z,1000.5
2018-08-13T04:14:50.609Z,1000.5
2018-08-13T04:15:52.112Z,1000.6
2018-08-13T04:16:53.513Z,1000.5
2018-08-13T04:17:54.915Z,1000.6
2018-08-13T04:18:56.531Z,1000.6
2018-08-13T04:19:57.932Z,1000.5
2018-08-13T04:20:59.332Z,1000.5
2018-08-13T04:22:00.763Z,1000.6
2018-08-13T04:23:02.163Z,1000.6
2018-08-13T04:24:03.569Z,1000.5
2018-08-13T04:25:05.073Z,1000.6
2018-08-13T04:26:06.478Z,1000.6
2018-08-13T04:27:07.879Z,1000.6
2018-08-13T04:28:09.396Z,1000.7
2018-08-13T04:29:10.796Z,1000.7
2018-08-13T04:30:12.200Z,1000.8
2018-08-13T04:31:13.717Z,1000.8
2018-08-13T04:32:15.120Z,1000.7
2018-08-13T04:33:16.524Z,1000.8
2018-08-13T04:34:18.038Z,1000.8
2018-08-13T04:35:19.439Z,1000.8
2018-08-13T04:36:20.840Z,1000.9
2018-08-13T04:37:22.358Z,1001.0
2018-08-13T04:38:23.758Z,1000.9
2018-08-13T04:39:25.241Z,1000.9
2018-08-13T04:40:26.658Z,1000.9
2018-08-13T04:41:28.046Z,1000.9
2018-08-13T04:42:29.460Z,1001.0
2018-08-13T04:43:30.860Z,1001.0
2018-08-13T04:44:32.267Z,1001.0
2018-08-13T04:45:33.864Z,1001.0
2018-08-13T04:46:35.268Z,1001.0
2018-08-13T04:47:36.879Z,1000.9
2018-08-13T04:48:38.282Z,1001.0
2018-08-13T04:49:39.953Z,1000.9
2018-08-13T04:50:41.354Z,1000.9
2018-08-13T04:51:42.886Z,1000.9
2018-08-13T04:52:44.479Z,1001.0
2018-08-13T04:53:45.881Z,1001.0
2018-08-13T04:54:47.285Z,1001.1
2018-08-13T04:55:48.797Z,1001.0
2018-08-13T04:56:50.203Z,1001.0
2018-08-13T04:57:51.605Z,1001.1
2018-08-13T04:58:53.057Z,1001.1
2018-08-13T04:59:54.421Z,1001.1
2018-08-13T05:00:55.824Z,1001.1
2018-08-13T05:01:57.339Z,1001.1
2018-08-13T05:02:58.741Z,1001.1
2018-08-13T05:04:00.141Z,1001.2
2018-08-13T05:05:01.563Z,1001.2
2018-08-13T05:06:02.958Z,1001.2
2018-08-13T05:07:04.363Z,1001.2
2018-08-13T05:08:05.881Z,1001.2
2018-08-13T05:09:07.284Z,1001.2
2018-08-13T05:10:08.685Z,1001.2
2018-08-13T05:11:10.199Z,1001.2
2018-08-13T05:12:11.604Z,1001.2
2018-08-13T05:13:13.004Z,1001.2
2018-08-13T05:14:14.520Z,1001.2
2018-08-13T05:15:15.926Z,1001.3
2018-08-13T05:16:17.327Z,1001.3
2018-08-13T05:17:18.842Z,1001.3
2018-08-13T05:18:20.250Z,1001.2
2018-08-13T05:19:21.724Z,1001.3
2018-08-13T05:20:23.128Z,1001.3
2018-08-13T05:21:24.674Z,1001.3
2018-08-13T05:22:26.008Z,1001.4
2018-08-13T05:23:27.486Z,1001.4
2018-08-13T05:24:28.887Z,1001.4
2018-08-13T05:25:30.290Z,1001.4
2018-08-13T05:26:31.706Z,1001.4
2018-08-13T05:27:33.108Z,1001.3
2018-08-13T05:28:34.513Z,1001.4
2018-08-13T05:29:36.027Z,1001.4
2018-08-13T05:30:37.436Z,1001.4
2018-08-13T05:31:38.840Z,1001.4
2018-08-13T05:32:40.352Z,1001.3
2018-08-13T05:33:41.750Z,1001.4
2018-08-13T05:34:43.157Z,1001.4
2018-08-13T05:35:44.670Z,1001.4
2018-08-13T05:36:46.078Z,1001.4
2018-08-13T05:37:47.484Z,1001.4
2018-08-13T05:38:48.991Z,1001.4
2018-08-13T05:39:50.396Z,1001.5
2018-08-13T05:40:51.801Z,1001.4
2018-08-13T05:41:53.311Z,1001.4
2018-08-13T05:42:54.717Z,1001.5
2018-08-13T05:43:56.123Z,1001.4
2018-08-13T05:44:57.633Z,1001.4
2018-08-13T05:45:59.040Z,1001.4
2018-08-13T05:47:00.440Z,1001.4
2018-08-13T05:48:01.959Z,1001.3
2018-08-13T05:49:03.362Z,1001.3
2018-08-13T05:50:04.763Z,1001.3
2018-08-13T05:51:06.382Z,1001.3
2018-08-13T05:52:07.788Z,1001.4
2018-08-13T05:53:09.463Z,1001.4
2018-08-13T05:54:10.867Z,1001.4
2018-08-13T05:55:12.564Z,1001.5
2018-08-13T05:56:13.969Z,1001.4
2018-08-13T05:57:15.369Z,1001.4
2018-08-13T05:58:16.873Z,1001.3
2018-08-13T05:59:18.279Z,1001.4
2018-08-13T06:00:19.681Z,1001.4
2018-08-13T06:01:21.193Z,1001.5
2018-08-13T06:02:22.603Z,1001.5
2018-08-13T06:03:24.011Z,1001.5
2018-08-13T06:04:25.517Z,1001.5
2018-08-13T06:05:26.920Z,1001.5
2018-08-13T06:06:28.329Z,1001.5
2018-08-13T06:07:29.839Z,1001.4
2018-08-13T06:08:31.242Z,1001.4
2018-08-13T06:09:32.648Z,1001.5
2018-08-13T06:10:34.157Z,1001.5
2018-08-13T06:11:35.631Z,1001.5
2018-08-13T06:12:36.976Z,1001.6
2018-08-13T06:13:38.490Z,1001.5
2018-08-13T06:14:39.881Z,1001.5
2018-08-13T06:15:41.362Z,1001.6
2018-08-13T06:16:42.765Z,1001.6
2018-08-13T06:17:44.241Z,1001.7
2018-08-13T06:18:45.810Z,1001.7
2018-08-13T06:19:47.335Z,1001.7
2018-08-13T06:20:48.734Z,1001.7
2018-08-13T06:21:50.210Z,1001.7
2018-08-13T06:22:51.640Z,1001.6
2018-08-13T06:23:53.087Z,1001.7
2018-08-13T06:24:54.493Z,1001.7
2018-08-13T06:25:55.969Z,1001.8
2018-08-13T06:26:57.376Z,1001.8
2018-08-13T06:27:58.779Z,1001.8
2018-08-13T06:29:00.290Z,1001.9
2018-08-13T06:30:01.746Z,1001.9
2018-08-13T06:31:03.118Z,1001.9
2018-08-13T06:32:04.612Z,1001.9
2018-08-13T06:33:06.069Z,1001.9
2018-08-13T06:34:07.434Z,1001.9
2018-08-13T06:35:08.930Z,1001.9
2018-08-13T06:36:10.338Z,1001.9
2018-08-13T06:37:11.776Z,1001.9
2018-08-13T06:38:13.284Z,1001.9
2018-08-13T06:39:14.660Z,1001.8
2018-08-13T06:40:16.135Z,1001.8
2018-08-13T06:41:17.538Z,1001.8
2018-08-13T06:42:19.015Z,1001.8
2018-08-13T06:43:20.417Z,1001.8
2018-08-13T06:44:21.899Z,1001.8
2018-08-13T06:45:23.302Z,1001.8
2018-08-13T06:46:24.781Z,1001.8
2018-08-13T06:47:26.178Z,1001.8
2018-08-13T06:48:27.657Z,1001.7
2018-08-13T06:49:29.063Z,1001.7
2018-08-13T06:50:30.539Z,1001.6
2018-08-13T06:51:31.939Z,1001.5
2018-08-13T06:52:33.418Z,1001.5
2018-08-13T06:53:34.821Z,1001.6
2018-08-13T06:54:36.299Z,1001.6
2018-08-13T06:55:37.708Z,1001.6
2018-08-13T06:56:39.182Z,1001.6
2018-08-13T06:57:40.586Z,1001.4
2018-08-13T06:58:41.996Z,1001.3
2018-08-13T06:59:43.502Z,1001.2
2018-08-13T07:00:44.918Z,1001.3
2018-08-13T07:01:46.314Z,1001.2
2018-08-13T07:02:47.825Z,1001.1
2018-08-13T07:03:49.231Z,1001.0
2018-08-13T07:04:50.705Z,1001.0
2018-08-13T07:05:52.109Z,1000.9
2018-08-13T07:06:53.586Z,1000.8
2018-08-13T07:07:54.987Z,1000.7
2018-08-13T07:08:56.394Z,1000.6
2018-08-13T07:09:57.908Z,1000.6
2018-08-13T07:10:59.307Z,1000.5
2018-08-13T07:12:00.716Z,1000.5
2018-08-13T07:13:02.227Z,1000.5
2018-08-13T07:14:03.632Z,1000.5
2018-08-13T07:15:05.108Z,1000.7
2018-08-13T07:16:06.514Z,1000.8
2018-08-13T07:17:07.991Z,1000.8
2018-08-13T07:18:09.396Z,1000.8
2018-08-13T07:19:10.799Z,1000.8
2018-08-13T07:20:12.310Z,1000.8
2018-08-13T07:21:13.716Z,1000.8
2018-08-13T07:22:15.149Z,1000.8
2018-08-13T07:23:16.637Z,1000.9
2018-08-13T07:24:18.041Z,1000.8
2018-08-13T07:25:19.511Z,1000.8
2018-08-13T07:26:20.916Z,1000.9
2018-08-13T07:27:22.320Z,1000.9
2018-08-13T07:28:23.836Z,1000.9
2018-08-13T07:29:25.237Z,1000.9
2018-08-13T07:30:26.645Z,1000.9
2018-08-13T07:31:28.156Z,1001.0
2018-08-13T07:32:29.566Z,1000.9
2018-08-13T07:33:31.037Z,1001.0
2018-08-13T07:34:32.479Z,1001.0
2018-08-13T07:35:33.883Z,1001.0
2018-08-13T07:36:35.288Z,1001.0
2018-08-13T07:37:36.803Z,1001.2
2018-08-13T07:38:38.199Z,1001.2
2018-08-13T07:39:39.609Z,1001.2
2018-08-13T07:40:41.120Z,1001.2
2018-08-13T07:41:42.520Z,1001.2
2018-08-13T07:42:43.920Z,1001.2
2018-08-13T07:43:45.342Z,1001.3
2018-08-13T07:44:46.747Z,1001.3
2018-08-13T07:45:48.222Z,1001.3
2018-08-13T07:46:49.625Z,1001.3
2018-08-13T07:47:51.101Z,1001.3
2018-08-13T07:48:52.503Z,1001.4
2018-08-13T07:49:53.985Z,1001.3
2018-08-13T07:50:55.398Z,1001.3
2018-08-13T07:51:56.863Z,1001.3
2018-08-13T07:52:58.269Z,1001.4
2018-08-13T07:53:59.742Z,1001.4
2018-08-13T07:55:01.138Z,1001.3
2018-08-13T07:56:02.629Z,1001.4
2018-08-13T07:57:04.038Z,1001.4
2018-08-13T07:58:05.445Z,1001.4
2018-08-13T07:59:06.947Z,1001.4
2018-08-13T08:00:08.391Z,1001.4
2018-08-13T08:01:09.760Z,1001.5
2018-08-13T08:02:11.268Z,1001.5
2018-08-13T08:03:12.665Z,1001.5
2018-08-13T08:04:14.072Z,1001.5
2018-08-13T08:05:15.485Z,1001.5
2018-08-13T08:06:16.892Z,1001.5
2018-08-13T08:07:18.367Z,1001.5
2018-08-13T08:08:19.772Z,1001.6
2018-08-13T08:09:21.249Z,1001.6
2018-08-13T08:10:22.649Z,1001.6
2018-08-13T08:11:24.132Z,1001.6
2018-08-13T08:12:25.536Z,1001.6
2018-08-13T08:13:27.009Z,1001.6
2018-08-13T08:14:28.413Z,1001.6
2018-08-13T08:15:29.890Z,1001.7
2018-08-13T08:16:31.296Z,1001.7
2018-08-13T08:17:32.771Z,1001.7
2018-08-13T08:18:34.175Z,1001.8
2018-08-13T08:19:35.652Z,1001.8
2018-08-13T08:20:37.059Z,1001.8
2018-08-13T08:21:38.535Z,1001.9
2018-08-13T08:22:39.948Z,1001.9
2018-08-13T08:23:41.353Z,1001.9
2018-08-13T08:24:42.857Z,1001.8
2018-08-13T08:25:44.263Z,1001.8
2018-08-13T08:26:45.699Z,1001.8
2018-08-13T08:27:47.184Z,1001.8
2018-08-13T08:28:48.590Z,1001.8
2018-08-13T08:29:50.020Z,1001.8
2018-08-13T08:30:51.498Z,1001.8
2018-08-13T08:31:52.901Z,1001.8
2018-08-13T08:32:54.309Z,1001.8
2018-08-13T08:33:55.820Z,1001.8
2018-08-13T08:34:57.225Z,1001.7
2018-08-13T08:35:58.699Z,1001.8
2018-08-13T08:37:00.110Z,1001.8
2018-08-13T08:38:01.586Z,1001.8
2018-08-13T08:39:03.038Z,1001.7
2018-08-13T08:40:04.460Z,1001.7
2018-08-13T08:41:05.861Z,1001.8
2018-08-13T08:42:07.342Z,1001.8
2018-08-13T08:43:08.751Z,1001.7
2018-08-13T08:44:10.158Z,1001.8
2018-08-13T08:45:11.662Z,1001.8
2018-08-13T08:46:13.062Z,1001.8
2018-08-13T08:47:14.469Z,1001.8
2018-08-13T08:48:15.983Z,1001.8
2018-08-13T08:49:17.388Z,1001.8
2018-08-13T08:50:18.864Z,1001.8
2018-08-13T08:51:20.266Z,1001.8
2018-08-13T08:52:21.746Z,1001.8
2018-08-13T08:53:23.152Z,1001.9
2018-08-13T08:54:24.562Z,1001.9
2018-08-13T08:55:26.071Z,1001.9
2018-08-13T08:56:27.473Z,1001.8
2018-08-13T08:57:28.883Z,1001.8
2018-08-13T08:58:30.388Z,1001.8
2018-08-13T08:59:31.792Z,1001.8
2018-08-13T09:00:33.219Z,1001.9
2018-08-13T09:01:34.713Z,1002.0
2018-08-13T09:02:36.114Z,1001.9
2018-08-13T09:03:37.531Z,1001.9
2018-08-13T09:04:39.029Z,1001.9
2018-08-13T09:05:40.441Z,1001.9
2018-08-13T09:06:41.911Z,1001.9
2018-08-13T09:07:43.314Z,1001.9
2018-08-13T09:08:44.792Z,1002.0
2018-08-13T09:09:46.216Z,1002.0
2018-08-13T09:10:47.674Z,1002.0
2018-08-13T09:11:49.076Z,1001.9
2018-08-13T09:12:50.555Z,1002.0
2018-08-13T09:13:51.958Z,1002.0
2018-08-13T09:14:53.433Z,1002.0
2018-08-13T09:15:54.841Z,1002.0
2018-08-13T09:16:56.315Z,1002.0
2018-08-13T09:17:57.715Z,1001.9
2018-08-13T09:18:59.220Z,1002.0
2018-08-13T09:20:00.616Z,1001.9
2018-08-13T09:21:02.081Z,1002.0
2018-08-13T09:22:03.485Z,1002.0
2018-08-13T09:23:04.959Z,1002.0
2018-08-13T09:24:06.362Z,1001.9
2018-08-13T09:25:07.839Z,1001.9
2018-08-13T09:26:09.251Z,1001.9
2018-08-13T09:27:10.720Z,1001.9
2018-08-13T09:28:12.123Z,1001.9
2018-08-13T09:29:13.604Z,1001.8
2018-08-13T09:30:15.006Z,1001.9
2018-08-13T09:31:16.483Z,1001.8
2018-08-13T09:32:17.892Z,1001.8
2018-08-13T09:33:19.364Z,1001.8
2018-08-13T09:34:20.767Z,1001.8
2018-08-13T09:35:22.169Z,1001.8
2018-08-13T09:36:23.688Z,1001.8
2018-08-13T09:37:25.086Z,1001.8
2018-08-13T09:38:26.488Z,1001.8
2018-08-13T09:39:28.005Z,1001.8
2018-08-13T09:40:29.413Z,1001.8
2018-08-13T09:41:34.012Z,1001.9
2018-08-13T09:42:35.804Z,1001.8
2018-08-13T09:43:37.252Z,1001.8
2018-08-13T09:44:38.659Z,1001.9
2018-08-13T09:45:40.067Z,1001.9
2018-08-13T09:46:41.571Z,1001.9
2018-08-13T09:47:42.977Z,1001.9
2018-08-13T09:48:44.419Z,1001.9
2018-08-13T09:49:45.893Z,1001.8
2018-08-13T09:50:47.292Z,1001.8
2018-08-13T09:51:48.775Z,1001.8
2018-08-13T09:52:50.179Z,1001.8
2018-08-13T09:53:51.784Z,1001.8
2018-08-13T09:54:53.063Z,1001.8
2018-08-13T09:55:54.535Z,1001.8
2018-08-13T09:56:55.936Z,1001.8
2018-08-13T09:57:57.414Z,1001.8
2018-08-13T09:58:58.856Z,1001.9
2018-08-13T10:00:00.299Z,1001.9
2018-08-13T10:01:01.704Z,1001.8
2018-08-13T10:02:03.183Z,1001.8
2018-08-13T10:03:04.583Z,1001.8
2018-08-13T10:04:06.061Z,1001.9
2018-08-13T10:05:07.461Z,1001.7
2018-08-13T10:06:08.864Z,1001.6
2018-08-13T10:07:10.392Z,1001.6
2018-08-13T10:08:11.792Z,1001.7
2018-08-13T10:09:13.251Z,1001.6
2018-08-13T10:10:14.700Z,1001.7
2018-08-13T10:11:16.108Z,1001.7
2018-08-13T10:12:17.513Z,1001.7
2018-08-13T10:13:19.022Z,1001.8
2018-08-13T10:14:20.427Z,1001.9
2018-08-13T10:15:21.835Z,1001.8
2018-08-13T10:16:23.367Z,1001.8
2018-08-13T10:17:24.781Z,1001.7
2018-08-13T10:18:26.228Z,1001.8
2018-08-13T10:19:27.627Z,1001.8
2018-08-13T10:20:29.114Z,1001.8
2018-08-13T10:21:30.520Z,1001.8
2018-08-13T10:22:31.988Z,1001.7
2018-08-13T10:23:33.394Z,1001.8
2018-08-13T10:24:34.881Z,1001.7
2018-08-13T10:25:36.284Z,1001.7
2018-08-13T10:26:37.706Z,1001.9
2018-08-13T10:27:39.192Z,1001.8
2018-08-13T10:28:40.597Z,1001.7
2018-08-13T10:29:42.053Z,1001.7
2018-08-13T10:30:43.509Z,1001.7
2018-08-13T10:31:44.917Z,1001.7
2018-08-13T10:32:46.326Z,1001.7
2018-08-13T10:33:47.842Z,1001.7
2018-08-13T10:34:49.235Z,1001.7
2018-08-13T10:35:50.641Z,1001.7
2018-08-13T10:36:52.162Z,1001.7
2018-08-13T10:37:53.578Z,1001.7
2018-08-13T10:38:55.030Z,1001.7
2018-08-13T10:39:56.436Z,1001.6
2018-08-13T10:40:57.841Z,1001.6
2018-08-13T10:41:59.354Z,1001.6
2018-08-13T10:43:00.764Z,1001.6
2018-08-13T10:44:02.171Z,1001.6
2018-08-13T10:45:03.676Z,1001.5
2018-08-13T10:46:05.083Z,1001.5
2018-08-13T10:47:06.496Z,1001.5
2018-08-13T10:48:07.996Z,1001.6
2018-08-13T10:49:09.407Z,1001.6
2018-08-13T10:50:10.814Z,1001.6
2018-08-13T10:51:12.319Z,1001.6
2018-08-13T10:52:13.733Z,1001.5
2018-08-13T10:53:15.198Z,1001.4
2018-08-13T10:54:16.603Z,1001.4
2018-08-13T10:55:18.017Z,1001.4
2018-08-13T10:56:19.521Z,1001.3
2018-08-13T10:57:20.953Z,1001.3
2018-08-13T10:58:22.362Z,1001.3
2018-08-13T10:59:24.869Z,1001.3
2018-08-13T11:00:26.272Z,1001.3
2018-08-13T11:01:27.680Z,1001.3
2018-08-13T11:02:29.185Z,1001.2
2018-08-13T11:03:30.592Z,1001.3
2018-08-13T11:04:32.007Z,1001.4
2018-08-13T11:05:33.508Z,1001.4
2018-08-13T11:06:34.921Z,1001.3
2018-08-13T11:07:36.387Z,1001.3
2018-08-13T11:08:37.795Z,1001.3
2018-08-13T11:09:39.272Z,1001.3
2018-08-13T11:10:40.678Z,1001.3
2018-08-13T11:11:42.155Z,1001.3
2018-08-13T11:12:43.567Z,1001.3
2018-08-13T11:13:45.030Z,1001.4
2018-08-13T11:14:46.445Z,1001.3
2018-08-13T11:15:47.875Z,1001.4
2018-08-13T11:16:49.353Z,1001.2
2018-08-13T11:17:50.765Z,1001.4
2018-08-13T11:18:52.185Z,1001.2
2018-08-13T11:19:53.672Z,1001.2
2018-08-13T11:20:55.085Z,1001.2
2018-08-13T11:21:56.555Z,1001.2
2018-08-13T11:22:57.961Z,1001.2
2018-08-13T11:23:59.433Z,1001.2
2018-08-13T11:25:00.840Z,1001.3
2018-08-13T11:26:02.256Z,1001.2
2018-08-13T11:27:03.755Z,1001.2
2018-08-13T11:28:05.160Z,1001.1
2018-08-13T11:29:06.690Z,1001.1
2018-08-13T11:30:08.281Z,1001.1
2018-08-13T11:31:09.732Z,1001.1
2018-08-13T11:32:11.092Z,1001.1
2018-08-13T11:33:12.602Z,1001.1
2018-08-13T11:34:14.006Z,1001.1
2018-08-13T11:35:15.417Z,1001.0
2018-08-13T11:36:16.924Z,1001.0
2018-08-13T11:37:18.326Z,1001.1
2018-08-13T11:38:19.733Z,1001.1
2018-08-13T11:39:21.247Z,1001.0
2018-08-13T11:40:22.653Z,1001.1
2018-08-13T11:41:24.060Z,1001.1
2018-08-13T11:42:25.566Z,1001.1
2018-08-13T11:43:26.972Z,1001.1
2018-08-13T11:44:28.453Z,1001.1
2018-08-13T11:45:29.850Z,1001.1
2018-08-13T11:46:31.254Z,1001.1
2018-08-13T11:47:32.768Z,1001.1
2018-08-13T11:48:34.173Z,1001.1
2018-08-13T11:49:35.576Z,1001.1
2018-08-13T11:50:37.089Z,1001.1
2018-08-13T11:51:38.497Z,1001.0
2018-08-13T11:52:39.896Z,1001.1
2018-08-13T11:53:41.416Z,1001.1
2018-08-13T11:54:42.816Z,1001.2
2018-08-13T11:55:44.225Z,1001.1
2018-08-13T11:56:45.734Z,1001.1
2018-08-13T11:57:47.146Z,1001.1
2018-08-13T11:58:48.755Z,1001.1
2018-08-13T11:59:50.157Z,1001.1
2018-08-13T12:00:51.703Z,1001.1
2018-08-13T12:01:53.135Z,1001.1
2018-08-13T12:02:54.516Z,1001.1
2018-08-13T12:03:56.020Z,1001.1
2018-08-13T12:04:57.429Z,1001.0
2018-08-13T12:05:58.833Z,1001.1
2018-08-13T12:07:00.347Z,1001.1
2018-08-13T12:08:01.750Z,1001.0
2018-08-13T12:09:03.225Z,1001.0
2018-08-13T12:10:04.631Z,1001.0
2018-08-13T12:11:06.042Z,1001.0
2018-08-13T12:12:07.554Z,1000.9
2018-08-13T12:13:08.954Z,1000.9
2018-08-13T12:14:10.425Z,1000.8
2018-08-13T12:15:11.867Z,1000.8
2018-08-13T12:16:13.274Z,1000.7
2018-08-13T12:17:14.685Z,1000.8
2018-08-13T12:18:16.187Z,1000.8
2018-08-13T12:19:17.597Z,1000.7
2018-08-13T12:20:19.012Z,1000.7
2018-08-13T12:21:20.510Z,1000.7
2018-08-13T12:22:21.913Z,1000.7
2018-08-13T12:23:23.391Z,1000.7
2018-08-13T12:24:24.802Z,1000.7
2018-08-13T12:25:26.273Z,1000.7
2018-08-13T12:26:27.708Z,1000.7
2018-08-13T12:27:29.157Z,1000.7
2018-08-13T12:28:30.564Z,1000.8
2018-08-13T12:29:32.047Z,1000.8
2018-08-13T12:30:33.458Z,1000.8
2018-08-13T12:31:34.864Z,1000.8
2018-08-13T12:32:36.355Z,1000.8
2018-08-13T12:33:37.764Z,1000.8
2018-08-13T12:34:39.165Z,1000.8
2018-08-13T12:35:40.680Z,1000.8
2018-08-13T12:36:42.083Z,1000.8
2018-08-13T12:37:43.488Z,1000.8
2018-08-13T12:38:44.993Z,1000.7
2018-08-13T12:39:46.407Z,1000.7
2018-08-13T12:40:47.879Z,1000.7
2018-08-13T12:41:49.299Z,1000.6
2018-08-13T12:42:50.698Z,1000.7
2018-08-13T12:43:52.197Z,1000.7
2018-08-13T12:44:53.601Z,1000.7
2018-08-13T12:45:55.009Z,1000.7
2018-08-13T12:46:56.518Z,1000.7
2018-08-13T12:47:57.936Z,1000.7
2018-08-13T12:48:59.332Z,1000.7
2018-08-13T12:50:00.843Z,1000.7
2018-08-13T12:51:02.285Z,1000.5